Brady, Montana
Current Conditions -  °F | °C
As of 12:53 AM on Friday 31 Oct 2014 (Local Time) from KGTF Reporting Station
Clear Clear  
Wind Chill: 53°   Ceiling: Unl
Heat Index: 53°   Visibility: 10mi
Dew Point: 31°   Wind: 16mph
Humidity: 43%   Direction: 170°S
Pressure: 29.99"   Gusts: 20mph
Location:  48.03°N, 111.85°W
Report Text: KGTF 310653Z 17014G17KT 10SM CLR 12/M01 A2999 RMK AO2 SLP152 T01171006 401441011
Loading
Personal Weather Stations






























Interactive Weather Map
Tropical Storm Tracking
New forecast layout! Learn more

10-Day Weather Forecast

Advertisements
Track Severe Weather on mobile